createdAt,value
2023-08-14T00:00:23.766Z,20.00
2023-08-14T00:01:26.782Z,20.00
2023-08-14T00:02:29.706Z,19.00
2023-08-14T00:03:32.673Z,19.00
2023-08-14T00:04:35.624Z,20.00
2023-08-14T00:05:38.534Z,19.00
2023-08-14T00:06:41.460Z,19.00
2023-08-14T00:07:44.383Z,17.00
2023-08-14T00:08:47.247Z,18.25
2023-08-14T00:09:50.137Z,19.00
2023-08-14T00:10:53.133Z,20.00
2023-08-14T00:11:56.013Z,19.00
2023-08-14T00:12:58.865Z,20.00
2023-08-14T00:14:01.797Z,20.00
2023-08-14T00:15:04.898Z,19.00
2023-08-14T00:16:07.804Z,18.25
2023-08-14T00:17:10.630Z,18.00
2023-08-14T00:18:13.513Z,18.50
2023-08-14T00:19:16.919Z,19.00
2023-08-14T00:20:20.019Z,18.00
2023-08-14T00:21:23.242Z,19.00
2023-08-14T00:22:26.183Z,20.00
2023-08-14T00:23:29.042Z,20.00
2023-08-14T00:24:31.959Z,19.00
2023-08-14T00:25:34.956Z,20.00
2023-08-14T00:26:37.887Z,21.00
2023-08-14T00:27:40.838Z,18.50
2023-08-14T00:28:44.029Z,19.00
2023-08-14T00:29:47.947Z,18.50
2023-08-14T00:30:50.851Z,20.00
2023-08-14T00:31:53.768Z,19.00
2023-08-14T00:32:57.429Z,18.00
2023-08-14T00:34:00.404Z,17.00
2023-08-14T00:35:04.846Z,17.75
2023-08-14T00:36:08.259Z,18.75
2023-08-14T00:37:11.226Z,18.50
2023-08-14T00:38:14.100Z,17.50
2023-08-14T00:39:17.082Z,16.00
2023-08-14T00:40:20.274Z,18.00
2023-08-14T00:41:23.245Z,17.00
2023-08-14T00:42:26.195Z,18.00
2023-08-14T00:43:29.130Z,18.00
2023-08-14T00:44:32.619Z,18.00
2023-08-14T00:45:45.173Z,18.00
2023-08-14T00:46:49.376Z,17.75
2023-08-14T00:47:52.642Z,19.00
2023-08-14T00:48:55.601Z,19.00
2023-08-14T00:49:59.024Z,18.00
2023-08-14T00:51:02.149Z,18.00
2023-08-14T00:52:05.341Z,18.25
2023-08-14T00:53:08.340Z,18.00
2023-08-14T00:54:11.685Z,19.00
2023-08-14T00:55:20.989Z,20.00
2023-08-14T00:56:25.811Z,19.75
2023-08-14T00:57:29.652Z,20.00
2023-08-14T00:58:32.797Z,18.75
2023-08-14T00:59:36.671Z,18.00
2023-08-14T01:00:40.057Z,18.00
2023-08-14T01:01:43.446Z,19.00
2023-08-14T01:02:48.946Z,19.00
2023-08-14T01:03:51.943Z,18.00
2023-08-14T01:04:54.902Z,18.75
2023-08-14T01:05:58.179Z,20.00
2023-08-14T01:07:03.538Z,21.00
2023-08-14T01:08:07.780Z,20.00
2023-08-14T01:09:12.258Z,20.00
2023-08-14T01:10:15.328Z,21.25
2023-08-14T01:11:46.507Z,20.00
2023-08-14T01:13:49.651Z,18.50
2023-08-14T01:15:00.239Z,19.00
2023-08-14T01:16:19.832Z,19.00
2023-08-14T01:17:25.013Z,19.00
2023-08-14T01:18:31.391Z,20.00
2023-08-14T01:19:45.021Z,18.75
2023-08-14T01:21:06.688Z,19.00
2023-08-14T01:22:13.129Z,18.00
2023-08-14T01:23:18.780Z,19.00
2023-08-14T01:24:27.255Z,22.00
2023-08-14T01:25:35.551Z,19.00
2023-08-14T01:26:38.901Z,19.25
2023-08-14T01:27:42.481Z,20.00
2023-08-14T01:28:45.829Z,19.00
2023-08-14T01:30:02.272Z,18.00
2023-08-14T01:31:05.369Z,19.00
2023-08-14T01:32:08.314Z,18.00
2023-08-14T01:33:11.266Z,21.25
2023-08-14T01:34:15.622Z,20.00
2023-08-14T01:35:23.670Z,18.00
2023-08-14T01:36:36.688Z,20.00
2023-08-14T01:37:42.282Z,19.00
2023-08-14T01:38:57.339Z,18.00
2023-08-14T01:40:48.844Z,18.00
2023-08-14T01:42:18.066Z,19.00
2023-08-14T01:43:27.258Z,20.00
2023-08-14T01:44:33.857Z,21.75
2023-08-14T01:45:38.096Z,20.00
2023-08-14T01:46:45.367Z,20.50
2023-08-14T01:47:51.347Z,19.00
2023-08-14T01:48:56.171Z,17.00
2023-08-14T01:50:00.757Z,18.00
2023-08-14T01:51:05.183Z,20.00
2023-08-14T01:52:08.958Z,19.00
2023-08-14T01:53:12.455Z,18.75
2023-08-14T01:54:15.303Z,18.75
2023-08-14T01:55:18.477Z,20.00
2023-08-14T01:56:21.461Z,20.00
2023-08-14T01:57:24.291Z,21.00
2023-08-14T01:58:27.250Z,21.00
2023-08-14T01:59:42.964Z,20.00
2023-08-14T02:00:45.827Z,20.00
2023-08-14T02:01:48.716Z,18.00
2023-08-14T02:02:52.028Z,18.50
2023-08-14T02:03:55.069Z,18.00
2023-08-14T02:04:58.023Z,20.00
2023-08-14T02:06:00.945Z,20.00
2023-08-14T02:07:04.202Z,20.00
2023-08-14T02:08:07.550Z,19.75
2023-08-14T02:09:10.504Z,17.00
2023-08-14T02:10:13.672Z,19.00
2023-08-14T02:11:16.569Z,19.00
2023-08-14T02:12:19.686Z,19.00
2023-08-14T02:13:23.147Z,19.00
2023-08-14T02:14:26.084Z,19.00
2023-08-14T02:15:28.987Z,20.00
2023-08-14T02:16:31.985Z,19.50
2023-08-14T02:17:34.939Z,19.00
2023-08-14T02:18:37.886Z,18.00
2023-08-14T02:19:40.755Z,19.75
2023-08-14T02:20:48.180Z,19.50
2023-08-14T02:21:51.686Z,19.00
2023-08-14T02:22:54.604Z,18.00
2023-08-14T02:23:57.459Z,20.75
2023-08-14T02:25:00.376Z,18.00
2023-08-14T02:26:03.228Z,20.00
2023-08-14T02:27:06.184Z,19.25
2023-08-14T02:28:09.066Z,20.00
2023-08-14T02:29:12.086Z,19.00
2023-08-14T02:30:15.941Z,18.50
2023-08-14T02:31:18.911Z,20.25
2023-08-14T02:32:22.244Z,20.00
2023-08-14T02:33:25.171Z,18.75
2023-08-14T02:34:58.442Z,18.00
2023-08-14T02:36:01.393Z,19.00
2023-08-14T02:37:04.435Z,20.00
2023-08-14T02:38:08.389Z,18.00
2023-08-14T02:39:11.288Z,21.00
2023-08-14T02:40:14.267Z,20.00
2023-08-14T02:41:17.213Z,20.50
2023-08-14T02:42:22.570Z,20.00
2023-08-14T02:43:25.617Z,19.75
2023-08-14T02:44:28.587Z,21.00
2023-08-14T02:45:32.048Z,19.00
2023-08-14T02:46:35.128Z,18.00
2023-08-14T02:47:38.211Z,18.00
2023-08-14T02:48:41.418Z,18.75
2023-08-14T02:49:44.385Z,20.75
2023-08-14T02:50:48.154Z,20.50
2023-08-14T02:51:51.042Z,19.75
2023-08-14T02:52:53.967Z,20.00
2023-08-14T02:53:56.840Z,18.00
2023-08-14T02:54:59.903Z,19.00
2023-08-14T02:56:02.740Z,19.00
2023-08-14T02:57:05.667Z,18.00
2023-08-14T02:58:08.560Z,18.50
2023-08-14T02:59:11.425Z,20.00
2023-08-14T03:00:14.761Z,19.50
2023-08-14T03:01:17.716Z,21.00
2023-08-14T03:02:20.901Z,22.00
2023-08-14T03:03:24.216Z,21.00
2023-08-14T03:04:27.116Z,21.00
2023-08-14T03:05:29.920Z,17.00
2023-08-14T03:06:33.992Z,19.00
2023-08-14T03:07:36.940Z,20.00
2023-08-14T03:08:40.290Z,20.00
2023-08-14T03:09:43.405Z,19.75
2023-08-14T03:10:46.470Z,22.00
2023-08-14T03:11:49.297Z,20.25
2023-08-14T03:12:52.208Z,19.25
2023-08-14T03:13:55.965Z,20.75
2023-08-14T03:14:58.848Z,19.00
2023-08-14T03:16:01.731Z,19.00
2023-08-14T03:17:04.664Z,20.25
2023-08-14T03:18:07.700Z,19.00
2023-08-14T03:19:10.641Z,20.25
2023-08-14T03:20:14.632Z,19.00
2023-08-14T03:21:17.508Z,20.00
2023-08-14T03:22:20.487Z,19.25
2023-08-14T03:23:23.679Z,18.25
2023-08-14T03:24:26.507Z,21.50
2023-08-14T03:25:29.374Z,21.00
2023-08-14T03:26:32.226Z,18.25
2023-08-14T03:27:35.350Z,18.25
2023-08-14T03:28:38.244Z,19.00
2023-08-14T03:29:41.105Z,19.50
2023-08-14T03:30:44.926Z,17.00
2023-08-14T03:31:48.070Z,17.50
2023-08-14T03:32:50.962Z,20.25
2023-08-14T03:33:53.895Z,21.00
2023-08-14T03:34:56.708Z,20.00
2023-08-14T03:35:59.589Z,20.00
2023-08-14T03:37:02.445Z,20.00
2023-08-14T03:38:05.624Z,19.00
2023-08-14T03:39:08.536Z,18.00
2023-08-14T03:40:11.776Z,17.00
2023-08-14T03:41:15.488Z,19.75
2023-08-14T03:42:18.631Z,18.00
2023-08-14T03:43:21.675Z,18.75
2023-08-14T03:44:24.849Z,19.00
2023-08-14T03:45:28.039Z,20.75
2023-08-14T03:46:30.911Z,20.00
2023-08-14T03:47:33.947Z,21.25
2023-08-14T03:48:36.804Z,20.00
2023-08-14T03:49:39.700Z,19.00
2023-08-14T03:50:42.646Z,20.00
2023-08-14T03:51:48.109Z,20.00
2023-08-14T03:52:51.016Z,20.00
2023-08-14T03:53:53.887Z,19.00
2023-08-14T03:54:56.831Z,20.25
2023-08-14T03:55:59.900Z,20.50
2023-08-14T03:57:02.802Z,20.00
2023-08-14T03:58:05.779Z,20.00
2023-08-14T03:59:08.617Z,20.50
2023-08-14T04:00:11.895Z,22.00
2023-08-14T04:01:14.856Z,21.25
2023-08-14T04:02:18.071Z,21.50
2023-08-14T04:03:21.310Z,20.25
2023-08-14T04:04:24.195Z,23.50
2023-08-14T04:05:27.114Z,22.50
2023-08-14T04:06:30.083Z,22.50
2023-08-14T04:07:33.244Z,23.25
2023-08-14T04:08:36.336Z,23.00
2023-08-14T04:09:39.234Z,22.00
2023-08-14T04:10:42.263Z,22.00
2023-08-14T04:11:45.233Z,22.00
2023-08-14T04:12:48.085Z,22.00
2023-08-14T04:13:51.077Z,20.50
2023-08-14T04:14:54.194Z,22.00
2023-08-14T04:16:02.952Z,21.00
2023-08-14T04:17:06.122Z,19.75
2023-08-14T04:18:09.360Z,20.75
2023-08-14T04:19:17.745Z,21.50
2023-08-14T04:20:20.791Z,20.00
2023-08-14T04:21:23.684Z,20.00
2023-08-14T04:22:26.892Z,20.50
2023-08-14T04:23:31.082Z,21.00
2023-08-14T04:24:33.965Z,20.00
2023-08-14T04:25:36.944Z,20.50
2023-08-14T04:26:40.505Z,21.50
2023-08-14T04:27:43.418Z,21.50
2023-08-14T04:28:46.323Z,22.50
2023-08-14T04:29:49.195Z,21.50
2023-08-14T04:30:52.038Z,22.50
2023-08-14T04:31:55.092Z,22.50
2023-08-14T04:32:58.042Z,23.00
2023-08-14T04:34:00.938Z,20.25
2023-08-14T04:35:03.759Z,22.00
2023-08-14T04:36:07.434Z,20.25
2023-08-14T04:37:10.459Z,22.00
2023-08-14T04:38:13.572Z,22.50
2023-08-14T04:39:17.553Z,21.00
2023-08-14T04:40:20.547Z,22.00
2023-08-14T04:41:23.487Z,22.25
2023-08-14T04:42:26.460Z,22.50
2023-08-14T04:43:33.882Z,22.75
2023-08-14T04:44:36.767Z,22.00
2023-08-14T04:45:39.725Z,21.75
2023-08-14T04:46:57.677Z,21.00
2023-08-14T04:48:02.297Z,21.50
2023-08-14T04:49:06.119Z,24.00
2023-08-14T04:50:09.481Z,24.25
2023-08-14T04:51:13.200Z,23.00
2023-08-14T04:52:16.847Z,25.50
2023-08-14T04:56:06.710Z,21.25
2023-08-14T04:57:09.616Z,21.00
2023-08-14T04:58:12.608Z,22.50
2023-08-14T04:59:15.519Z,21.00
2023-08-14T05:00:19.269Z,19.00
2023-08-14T05:01:22.415Z,21.00
2023-08-14T05:02:25.452Z,20.00
2023-08-14T05:03:28.304Z,23.00
2023-08-14T05:04:31.160Z,21.00
2023-08-14T05:05:33.993Z,21.00
2023-08-14T05:06:37.037Z,21.00
2023-08-14T05:07:39.980Z,21.75
2023-08-14T05:08:42.879Z,24.00
2023-08-14T05:09:45.776Z,23.25
2023-08-14T05:10:55.222Z,21.00
2023-08-14T05:12:00.443Z,23.00
2023-08-14T05:13:08.284Z,23.00
2023-08-14T05:14:11.163Z,22.00
2023-08-14T05:15:14.244Z,20.00
2023-08-14T05:16:17.093Z,20.00
2023-08-14T05:17:20.056Z,20.25
2023-08-14T05:18:22.951Z,21.75
2023-08-14T05:19:25.968Z,22.00
2023-08-14T05:20:28.868Z,21.00
2023-08-14T05:21:31.895Z,20.00
2023-08-14T05:22:34.831Z,23.00
2023-08-14T05:23:37.726Z,22.00
2023-08-14T05:24:40.603Z,24.00
2023-08-14T05:25:44.595Z,23.00
2023-08-14T05:26:47.472Z,23.00
2023-08-14T05:27:51.045Z,23.50
2023-08-14T05:28:54.261Z,22.00
2023-08-14T05:29:57.293Z,22.25
2023-08-14T05:31:00.194Z,22.00
2023-08-14T05:32:03.148Z,21.00
2023-08-14T05:33:06.445Z,21.50
2023-08-14T05:34:09.504Z,20.25
2023-08-14T05:35:12.366Z,23.00
2023-08-14T05:36:15.265Z,23.00
2023-08-14T05:37:18.177Z,25.25
2023-08-14T05:38:21.135Z,23.25
2023-08-14T05:39:24.012Z,22.00
2023-08-14T05:40:29.766Z,20.00
2023-08-14T05:41:32.669Z,22.00
2023-08-14T05:42:35.580Z,21.00
2023-08-14T05:43:38.517Z,24.00
2023-08-14T05:44:41.405Z,24.00
2023-08-14T05:45:45.989Z,25.00
2023-08-14T05:46:49.952Z,23.00
2023-08-14T05:47:53.068Z,26.25
2023-08-14T05:48:56.103Z,24.75
2023-08-14T05:49:59.032Z,25.00
2023-08-14T05:51:02.062Z,23.50
2023-08-14T05:52:05.077Z,24.00
2023-08-14T05:53:09.042Z,25.00
2023-08-14T05:54:11.919Z,24.00
2023-08-14T05:55:15.067Z,23.00
2023-08-14T05:56:18.019Z,23.00
2023-08-14T05:57:20.991Z,23.00
2023-08-14T05:58:23.956Z,22.00
2023-08-14T05:59:27.053Z,20.00
2023-08-14T06:00:30.030Z,21.00
2023-08-14T06:01:32.989Z,22.00
2023-08-14T06:02:35.961Z,23.00
2023-08-14T06:03:45.008Z,22.00
2023-08-14T06:04:48.529Z,20.00
2023-08-14T06:05:51.462Z,18.50
2023-08-14T06:06:55.797Z,22.00
2023-08-14T06:07:59.006Z,22.75
2023-08-14T06:09:02.925Z,24.00
2023-08-14T06:10:07.720Z,22.00
2023-08-14T06:11:10.682Z,22.50
2023-08-14T06:12:13.588Z,23.50
2023-08-14T06:13:17.266Z,23.00
2023-08-14T06:14:20.310Z,23.00
2023-08-14T06:15:23.384Z,24.00
2023-08-14T06:16:26.338Z,22.00
2023-08-14T06:17:32.648Z,23.00
2023-08-14T06:18:35.786Z,23.50
2023-08-14T06:19:38.640Z,25.00
2023-08-14T06:20:41.567Z,23.50
2023-08-14T06:21:44.558Z,22.00
2023-08-14T06:22:51.535Z,23.00
2023-08-14T06:23:54.410Z,22.25
2023-08-14T06:24:57.347Z,22.25
2023-08-14T06:26:00.672Z,23.50
2023-08-14T06:27:03.563Z,24.00
2023-08-14T06:28:06.809Z,22.00
2023-08-14T06:29:10.096Z,20.00
2023-08-14T06:30:13.664Z,21.00
2023-08-14T06:31:16.636Z,22.50
2023-08-14T06:32:19.853Z,21.00
2023-08-14T06:33:23.144Z,21.00
2023-08-14T06:34:26.818Z,24.50
2023-08-14T06:35:29.817Z,25.00
2023-08-14T06:36:32.690Z,23.00
2023-08-14T06:37:36.353Z,23.00
2023-08-14T06:38:39.174Z,24.00
2023-08-14T06:39:42.078Z,22.00
2023-08-14T06:40:44.991Z,21.50
2023-08-14T06:41:48.220Z,24.00
2023-08-14T06:42:51.149Z,24.00
2023-08-14T06:43:54.050Z,23.75
2023-08-14T06:44:56.962Z,24.75
2023-08-14T06:45:59.925Z,22.25
2023-08-14T06:47:03.609Z,21.00
2023-08-14T06:48:07.004Z,22.50
2023-08-14T06:49:10.088Z,21.50
2023-08-14T06:50:14.885Z,23.50
2023-08-14T06:51:17.811Z,23.00
2023-08-14T06:52:21.288Z,22.00
2023-08-14T06:53:24.406Z,22.00
2023-08-14T06:54:27.398Z,22.50
2023-08-14T06:55:30.298Z,22.00
2023-08-14T06:56:33.372Z,20.75
2023-08-14T06:57:36.771Z,21.25
2023-08-14T06:58:39.603Z,20.75
2023-08-14T06:59:43.854Z,22.50
2023-08-14T07:00:50.756Z,24.00
2023-08-14T07:01:53.694Z,22.00
2023-08-14T07:02:56.705Z,22.00
2023-08-14T07:03:59.649Z,23.00
2023-08-14T07:05:02.574Z,22.50
2023-08-14T07:06:05.859Z,22.00
2023-08-14T07:07:08.757Z,23.50
2023-08-14T07:08:11.752Z,23.00
2023-08-14T07:09:18.720Z,20.25
2023-08-14T07:10:21.670Z,21.00
2023-08-14T07:11:24.617Z,20.25
2023-08-14T07:13:31.882Z,18.00
2023-08-14T07:14:35.502Z,19.00
2023-08-14T07:15:41.074Z,18.00
2023-08-14T07:16:44.573Z,17.00
2023-08-14T07:17:47.488Z,15.00
2023-08-14T07:18:50.409Z,12.00
2023-08-14T07:19:53.223Z,9.00
2023-08-14T07:20:57.043Z,11.00
2023-08-14T07:22:00.008Z,9.00
2023-08-14T07:23:02.886Z,7.00
2023-08-14T07:24:06.450Z,8.75
2023-08-14T07:25:09.982Z,9.75
2023-08-14T07:26:15.796Z,11.00
2023-08-14T07:27:20.680Z,10.75
2023-08-14T07:28:24.649Z,10.50
2023-08-14T07:29:27.586Z,9.00
2023-08-14T07:30:30.469Z,9.25
2023-08-14T07:31:33.353Z,7.75
2023-08-14T07:32:36.269Z,7.00
2023-08-14T07:33:39.278Z,8.00
2023-08-14T07:34:42.161Z,7.00
2023-08-14T07:35:45.283Z,9.25
2023-08-14T07:36:48.163Z,9.00
2023-08-14T07:37:51.115Z,8.50
2023-08-14T07:38:54.007Z,9.00
2023-08-14T07:39:56.886Z,8.25
2023-08-14T07:40:59.816Z,8.50
2023-08-14T07:42:02.658Z,9.50
2023-08-14T07:43:07.698Z,11.00
2023-08-14T07:44:11.238Z,10.00
2023-08-14T07:45:14.193Z,7.50
2023-08-14T07:46:17.160Z,8.50
2023-08-14T07:47:20.049Z,8.75
2023-08-14T07:48:23.150Z,8.00
2023-08-14T07:49:26.100Z,10.00
2023-08-14T07:50:29.053Z,9.25
2023-08-14T07:51:31.949Z,9.00
2023-08-14T07:52:36.941Z,9.00
2023-08-14T07:53:39.934Z,8.75
2023-08-14T07:54:42.814Z,9.00
2023-08-14T07:55:45.719Z,10.00
2023-08-14T07:56:50.964Z,8.00
2023-08-14T07:57:54.361Z,8.25
2023-08-14T07:58:57.185Z,11.00
2023-08-14T08:00:00.048Z,8.00
2023-08-14T08:01:03.144Z,9.00
2023-08-14T08:02:06.828Z,8.25
2023-08-14T08:03:09.971Z,9.00
2023-08-14T08:04:26.581Z,8.00
2023-08-14T08:05:29.818Z,9.00
2023-08-14T08:06:43.411Z,9.00
2023-08-14T08:07:46.761Z,9.00
2023-08-14T08:08:50.446Z,9.00
2023-08-14T08:09:54.719Z,11.00
2023-08-14T08:10:58.828Z,9.00
2023-08-14T08:12:01.855Z,10.00
2023-08-14T08:13:05.356Z,8.75
2023-08-14T08:14:09.124Z,9.25
2023-08-14T08:15:12.531Z,10.00
2023-08-14T08:16:15.703Z,10.00
2023-08-14T08:17:19.577Z,10.00
2023-08-14T08:18:22.638Z,11.00
2023-08-14T08:19:25.549Z,11.00
2023-08-14T08:20:29.188Z,14.00
2023-08-14T08:21:32.585Z,11.00
2023-08-14T08:22:35.954Z,9.00
2023-08-14T08:23:38.842Z,8.00
2023-08-14T08:24:41.734Z,9.75
2023-08-14T08:25:44.562Z,11.00
2023-08-14T08:26:47.869Z,13.00
2023-08-14T08:27:50.715Z,11.75
2023-08-14T08:28:54.117Z,13.00
2023-08-14T08:29:56.947Z,13.00
2023-08-14T08:31:01.001Z,11.00
2023-08-14T08:32:03.831Z,10.00
2023-08-14T08:33:06.747Z,11.00
2023-08-14T08:34:09.736Z,14.00
2023-08-14T08:35:12.719Z,14.00
2023-08-14T08:36:15.764Z,16.00
2023-08-14T08:37:21.584Z,15.00
2023-08-14T08:38:24.469Z,14.50
2023-08-14T08:39:27.425Z,13.25
2023-08-14T08:40:32.041Z,15.00
2023-08-14T08:41:38.606Z,14.25
2023-08-14T08:42:42.480Z,13.00
2023-08-14T08:43:45.695Z,13.00
2023-08-14T08:44:49.254Z,11.00
2023-08-14T08:45:53.909Z,12.00
2023-08-14T08:47:10.774Z,11.00
2023-08-14T08:48:16.182Z,9.50
2023-08-14T08:49:19.469Z,10.25
2023-08-14T08:50:22.555Z,11.00
2023-08-14T08:51:26.601Z,12.00
2023-08-14T08:52:30.174Z,12.00
2023-08-14T08:53:33.133Z,12.00
2023-08-14T08:54:36.832Z,10.00
2023-08-14T08:55:40.199Z,10.50
2023-08-14T08:56:44.063Z,9.50
2023-08-14T08:57:47.172Z,9.00
2023-08-14T08:58:51.145Z,8.00
2023-08-14T08:59:54.816Z,10.00
2023-08-14T09:00:57.873Z,9.25
2023-08-14T09:02:00.774Z,12.00
2023-08-14T09:03:03.901Z,12.00
2023-08-14T09:04:07.366Z,10.00
2023-08-14T09:05:10.430Z,9.00
2023-08-14T09:06:13.781Z,10.00
2023-08-14T09:07:17.500Z,10.00
2023-08-14T09:08:20.584Z,14.00
2023-08-14T09:09:24.524Z,16.00
2023-08-14T09:10:27.439Z,13.00
2023-08-14T09:11:31.956Z,12.50
2023-08-14T09:12:34.900Z,13.00
2023-08-14T09:13:37.775Z,12.00
2023-08-14T09:14:47.500Z,11.75
2023-08-14T09:15:50.531Z,11.00
2023-08-14T09:16:56.329Z,11.25
2023-08-14T09:17:59.268Z,12.00
2023-08-14T09:19:02.921Z,9.50
2023-08-14T09:20:12.617Z,8.00
2023-08-14T09:21:22.428Z,10.00
2023-08-14T09:22:29.147Z,10.00
2023-08-14T09:23:34.354Z,10.50
2023-08-14T09:24:38.485Z,9.00
2023-08-14T09:25:48.498Z,11.00
2023-08-14T09:26:51.559Z,11.00
2023-08-14T09:27:57.545Z,10.75
2023-08-14T09:29:01.070Z,10.00
2023-08-14T09:30:04.136Z,10.50
2023-08-14T09:31:11.242Z,12.00
2023-08-14T09:32:14.163Z,12.00
2023-08-14T09:33:17.105Z,9.25
2023-08-14T09:34:20.761Z,7.00
2023-08-14T09:35:23.749Z,7.75
2023-08-14T09:36:35.691Z,8.00
2023-08-14T09:37:38.601Z,6.00
2023-08-14T09:38:42.367Z,8.00
2023-08-14T09:39:45.273Z,7.00
2023-08-14T09:40:48.132Z,8.00
2023-08-14T09:41:51.096Z,8.50
2023-08-14T09:42:58.092Z,7.50
2023-08-14T09:44:04.177Z,7.00
2023-08-14T09:45:07.882Z,7.50
2023-08-14T09:46:14.546Z,9.00
2023-08-14T09:47:18.167Z,8.00
2023-08-14T09:48:21.642Z,8.75
2023-08-14T09:49:24.700Z,6.25
2023-08-14T09:50:30.818Z,7.00
2023-08-14T09:51:34.399Z,7.50
2023-08-14T09:52:37.280Z,7.00
2023-08-14T09:53:47.465Z,6.75
2023-08-14T09:54:51.931Z,5.00
2023-08-14T09:55:55.989Z,5.00
2023-08-14T09:57:01.899Z,5.50
2023-08-14T09:58:05.058Z,5.00
2023-08-14T09:59:09.342Z,6.75
2023-08-14T10:00:14.904Z,6.00
2023-08-14T10:01:19.982Z,5.00
2023-08-14T10:02:26.993Z,8.00
2023-08-14T10:03:30.488Z,8.00
2023-08-14T10:04:33.636Z,7.00
2023-08-14T10:05:37.156Z,8.00
2023-08-14T10:06:40.216Z,5.00
2023-08-14T10:07:44.749Z,6.00
2023-08-14T10:08:49.370Z,4.00
2023-08-14T10:09:54.642Z,4.50
2023-08-14T10:11:17.345Z,5.00
2023-08-14T10:12:52.257Z,4.00
2023-08-14T10:13:59.812Z,5.00
2023-08-14T10:15:10.604Z,5.00
2023-08-14T10:16:17.461Z,5.00
2023-08-14T10:17:31.805Z,5.00
2023-08-14T10:18:38.465Z,5.00
2023-08-14T10:19:43.201Z,6.00
2023-08-14T10:20:49.256Z,7.00
2023-08-14T10:21:55.412Z,4.25
2023-08-14T10:22:59.782Z,6.75
2023-08-14T10:24:04.972Z,6.00
2023-08-14T10:25:09.562Z,5.00
2023-08-14T10:26:12.725Z,6.00
2023-08-14T10:27:15.767Z,5.75
2023-08-14T10:28:20.802Z,5.00
2023-08-14T10:29:24.897Z,5.25
2023-08-14T10:30:28.541Z,5.00
2023-08-14T10:31:33.947Z,6.00
2023-08-14T10:32:37.721Z,4.75
2023-08-14T10:33:42.342Z,5.00
2023-08-14T10:34:45.749Z,3.25
2023-08-14T10:35:57.663Z,4.00
2023-08-14T10:37:00.586Z,4.00
2023-08-14T10:38:10.203Z,3.75
2023-08-14T10:40:25.191Z,7.00
2023-08-14T10:41:36.342Z,8.00
2023-08-14T10:42:39.198Z,7.00
2023-08-14T10:43:42.254Z,5.00
2023-08-14T10:44:46.407Z,7.00
2023-08-14T10:45:53.342Z,8.25
2023-08-14T10:47:06.431Z,7.00
2023-08-14T10:48:12.745Z,6.00
2023-08-14T10:49:16.288Z,6.50
2023-08-14T10:50:25.376Z,5.00
2023-08-14T10:51:35.764Z,6.00
2023-08-14T10:52:38.836Z,5.00
2023-08-14T10:53:44.631Z,5.50
2023-08-14T10:54:53.252Z,6.00
2023-08-14T10:55:56.241Z,5.00
2023-08-14T10:57:15.969Z,5.00
2023-08-14T10:58:30.961Z,3.75
2023-08-14T10:59:36.721Z,4.00
2023-08-14T11:00:46.891Z,4.50
2023-08-14T11:02:05.510Z,7.00
2023-08-14T11:03:10.405Z,5.00
2023-08-14T11:04:13.357Z,5.00
2023-08-14T11:05:19.357Z,6.00
2023-08-14T11:06:31.411Z,4.75
2023-08-14T11:07:36.554Z,5.00
2023-08-14T11:08:39.431Z,5.75
2023-08-14T11:09:45.577Z,7.00
2023-08-14T11:10:51.494Z,7.00
2023-08-14T11:11:57.984Z,5.00
2023-08-14T11:13:01.373Z,6.00
2023-08-14T11:14:04.318Z,6.25
2023-08-14T11:15:08.486Z,5.50
2023-08-14T11:16:12.171Z,7.00
2023-08-14T11:17:15.014Z,7.50
2023-08-14T11:18:18.320Z,6.00
2023-08-14T11:19:23.929Z,4.75
2023-08-14T11:20:32.366Z,5.00
2023-08-14T11:21:38.871Z,5.50
2023-08-14T11:22:46.457Z,6.00
2023-08-14T11:23:49.333Z,8.00
2023-08-14T11:24:52.725Z,6.00
2023-08-14T11:25:57.612Z,5.00
2023-08-14T11:27:04.301Z,5.50
2023-08-14T11:28:07.461Z,5.00
2023-08-14T11:29:10.277Z,6.00
2023-08-14T11:30:15.388Z,7.00
2023-08-14T11:31:27.662Z,5.50
2023-08-14T11:32:37.306Z,5.00
2023-08-14T11:33:40.199Z,6.75
2023-08-14T11:34:43.195Z,7.00
2023-08-14T11:35:46.971Z,8.00
2023-08-14T11:38:08.242Z,6.75
2023-08-14T11:39:12.987Z,8.75
2023-08-14T11:40:19.700Z,6.75
2023-08-14T11:42:29.095Z,5.00
2023-08-14T11:43:31.970Z,6.00
2023-08-14T11:44:36.276Z,6.25
2023-08-14T11:45:39.968Z,6.00
2023-08-14T11:46:43.147Z,5.50
2023-08-14T11:47:52.598Z,7.00
2023-08-14T11:48:55.616Z,4.00
2023-08-14T11:49:59.356Z,8.00
2023-08-14T11:51:02.299Z,4.00
2023-08-14T11:52:06.322Z,6.25
2023-08-14T11:53:12.697Z,5.75
2023-08-14T11:54:16.589Z,6.75
2023-08-14T11:55:19.797Z,7.00
2023-08-14T11:56:22.990Z,7.25
2023-08-14T11:57:29.873Z,5.25
2023-08-14T11:58:33.734Z,7.00
2023-08-14T11:59:37.258Z,7.00
2023-08-14T12:00:40.302Z,9.50
2023-08-14T12:01:43.694Z,6.00
2023-08-14T12:02:46.612Z,7.00
2023-08-14T12:03:49.785Z,5.50
2023-08-14T12:04:59.742Z,6.50
2023-08-14T12:06:05.356Z,5.75
2023-08-14T12:07:11.388Z,8.00
2023-08-14T12:08:14.975Z,8.00
2023-08-14T12:09:17.988Z,6.00
2023-08-14T12:10:20.954Z,5.75
2023-08-14T12:11:24.066Z,5.00
2023-08-14T12:12:28.111Z,6.00
2023-08-14T12:13:35.080Z,8.50
2023-08-14T12:14:45.310Z,7.00
2023-08-14T12:15:51.340Z,8.50
2023-08-14T12:16:57.344Z,7.50
2023-08-14T12:18:01.894Z,8.00
2023-08-14T12:19:08.909Z,6.00
2023-08-14T12:20:12.898Z,8.00
2023-08-14T12:21:15.971Z,7.75
2023-08-14T12:22:25.096Z,7.00
2023-08-14T12:23:28.126Z,7.00
2023-08-14T12:24:41.605Z,7.25
2023-08-14T12:25:44.770Z,6.00
2023-08-14T12:26:47.788Z,7.00
2023-08-14T12:27:50.748Z,8.00
2023-08-14T12:28:54.070Z,6.00
2023-08-14T12:29:58.450Z,5.00
2023-08-14T12:31:01.404Z,6.00
2023-08-14T12:32:05.196Z,6.25
2023-08-14T12:33:08.266Z,6.00
2023-08-14T12:34:11.329Z,5.25
2023-08-14T12:35:14.332Z,6.75
2023-08-14T12:36:17.331Z,7.00
2023-08-14T12:37:20.455Z,7.00
2023-08-14T12:38:23.625Z,6.00
2023-08-14T12:39:26.506Z,7.00
2023-08-14T12:40:30.174Z,8.50
2023-08-14T12:41:33.552Z,6.00
2023-08-14T12:42:37.007Z,8.75
2023-08-14T12:43:41.066Z,7.00
2023-08-14T12:44:44.182Z,6.00
2023-08-14T12:45:47.133Z,7.00
2023-08-14T12:46:50.131Z,7.75
2023-08-14T12:47:53.124Z,5.00
2023-08-14T12:48:56.004Z,6.00
2023-08-14T12:49:58.877Z,6.00
2023-08-14T12:51:03.655Z,5.50
2023-08-14T12:52:10.169Z,7.00
2023-08-14T12:53:18.788Z,6.75
2023-08-14T12:54:23.213Z,8.50
2023-08-14T12:55:26.189Z,6.25
2023-08-14T12:56:29.332Z,6.00
2023-08-14T12:57:32.402Z,8.25
2023-08-14T12:58:35.377Z,8.00
2023-08-14T12:59:38.274Z,8.00
2023-08-14T13:00:41.989Z,6.00
2023-08-14T13:01:47.820Z,7.00
2023-08-14T13:02:51.366Z,7.00
2023-08-14T13:03:58.706Z,8.00
2023-08-14T13:05:02.782Z,7.00
2023-08-14T13:06:06.291Z,6.00
2023-08-14T13:07:09.304Z,6.50
2023-08-14T13:08:12.307Z,7.00
2023-08-14T13:09:15.271Z,8.00
2023-08-14T13:10:18.228Z,8.00
2023-08-14T13:11:21.207Z,7.00
2023-08-14T13:12:24.107Z,7.00
2023-08-14T13:13:29.293Z,6.00
2023-08-14T13:14:32.219Z,7.00
2023-08-14T13:15:35.101Z,7.25
2023-08-14T13:16:38.104Z,7.00
2023-08-14T13:17:41.075Z,8.75
2023-08-14T13:18:44.300Z,7.00
2023-08-14T13:19:47.169Z,5.25
2023-08-14T13:20:50.048Z,8.50
2023-08-14T13:21:52.904Z,8.00
2023-08-14T13:22:55.753Z,7.00
2023-08-14T13:23:58.695Z,8.75
2023-08-14T13:25:01.778Z,7.00
2023-08-14T13:26:04.781Z,8.50
2023-08-14T13:27:09.423Z,8.00
2023-08-14T13:28:14.141Z,8.00
2023-08-14T13:29:17.124Z,7.00
2023-08-14T13:30:20.721Z,8.00
2023-08-14T13:31:24.028Z,8.00
2023-08-14T13:32:27.025Z,7.00
2023-08-14T13:33:29.884Z,8.00
2023-08-14T13:34:32.786Z,6.00
2023-08-14T13:35:35.957Z,8.00
2023-08-14T13:36:38.815Z,8.00
2023-08-14T13:37:41.702Z,7.75
2023-08-14T13:38:44.552Z,8.00
2023-08-14T13:39:47.906Z,7.00
2023-08-14T13:40:50.747Z,7.00
2023-08-14T13:41:53.578Z,7.00
2023-08-14T13:42:56.453Z,8.00
2023-08-14T13:43:59.411Z,9.00
2023-08-14T13:45:12.362Z,7.00
2023-08-14T13:46:19.788Z,7.25
2023-08-14T13:47:22.968Z,8.00
2023-08-14T13:48:26.120Z,7.25
2023-08-14T13:49:29.036Z,8.00
2023-08-14T13:50:34.518Z,6.00
2023-08-14T13:51:37.577Z,6.25
2023-08-14T13:52:42.289Z,7.00
2023-08-14T13:53:45.652Z,7.50
2023-08-14T13:54:51.576Z,10.00
2023-08-14T13:55:54.424Z,8.00
2023-08-14T13:56:57.445Z,8.00
2023-08-14T13:58:01.041Z,9.00
2023-08-14T13:59:05.005Z,8.25
2023-08-14T14:00:08.754Z,8.00
2023-08-14T14:01:11.644Z,8.25
2023-08-14T14:02:15.621Z,7.00
2023-08-14T14:03:18.534Z,8.00
2023-08-14T14:04:22.355Z,7.25
2023-08-14T14:05:25.613Z,9.75
2023-08-14T14:06:28.567Z,9.00
2023-08-14T14:07:36.493Z,7.75